createdAt,value
2019-05-11T00:02:26.361Z,83.50
2019-05-11T00:04:55.644Z,83.40
2019-05-11T00:07:24.924Z,84.30
2019-05-11T00:09:58.096Z,84.50
2019-05-11T00:12:25.157Z,85.60
2019-05-11T00:14:54.436Z,86.30
2019-05-11T00:17:23.706Z,86.40
2019-05-11T00:19:52.964Z,88.40
2019-05-11T00:22:22.218Z,89.40
2019-05-11T00:24:51.483Z,89.30
2019-05-11T00:27:20.748Z,89.10
2019-05-11T00:29:50.095Z,88.60
2019-05-11T00:32:22.633Z,90.10
2019-05-11T00:34:50.222Z,90.70
2019-05-11T00:37:19.526Z,91.40
2019-05-11T00:39:48.715Z,91.30
2019-05-11T00:42:17.991Z,90.90
2019-05-11T00:44:48.262Z,90.00
2019-05-11T00:47:17.476Z,89.70
2019-05-11T00:49:46.746Z,90.90
2019-05-11T00:52:16.018Z,91.10
2019-05-11T00:54:45.286Z,90.90
2019-05-11T00:57:14.550Z,91.60
2019-05-11T00:59:44.082Z,91.70
2019-05-11T01:02:13.360Z,91.20
2019-05-11T01:04:42.624Z,91.30
2019-05-11T01:07:11.890Z,91.30
2019-05-11T01:09:41.150Z,90.80
2019-05-11T01:12:10.348Z,90.70
2019-05-11T01:14:39.685Z,91.10
2019-05-11T01:17:08.963Z,90.90
2019-05-11T01:19:38.379Z,90.60
2019-05-11T01:22:07.651Z,91.10
2019-05-11T01:24:36.858Z,91.40
2019-05-11T01:27:06.187Z,91.50
2019-05-11T01:29:35.450Z,91.30
2019-05-11T01:32:04.748Z,91.10
2019-05-11T01:34:34.083Z,90.90
2019-05-11T01:37:04.379Z,90.90
2019-05-11T01:39:33.629Z,91.00
2019-05-11T01:42:02.838Z,91.30
2019-05-11T01:44:32.103Z,91.70
2019-05-11T01:47:01.443Z,91.60
2019-05-11T01:49:30.693Z,91.00
2019-05-11T01:51:59.839Z,91.50
2019-05-11T01:54:29.036Z,91.30
2019-05-11T01:56:58.277Z,90.50
2019-05-11T01:59:27.456Z,90.90
2019-05-11T02:01:56.673Z,90.80
2019-05-11T02:04:25.806Z,91.00
2019-05-11T02:06:54.971Z,91.40
2019-05-11T02:09:24.105Z,90.90
2019-05-11T02:11:53.261Z,90.60
2019-05-11T02:14:22.403Z,91.50
2019-05-11T02:16:51.577Z,90.90
2019-05-11T02:19:20.739Z,91.10
2019-05-11T02:21:49.988Z,90.80
2019-05-11T02:24:19.141Z,90.60
2019-05-11T02:26:48.301Z,90.90
2019-05-11T02:29:17.463Z,90.80
2019-05-11T02:31:46.611Z,90.70
2019-05-11T02:34:15.838Z,90.40
2019-05-11T02:36:45.044Z,90.70
2019-05-11T02:39:14.207Z,90.80
2019-05-11T02:41:43.341Z,90.70
2019-05-11T02:44:12.508Z,90.60
2019-05-11T02:46:41.825Z,90.00
2019-05-11T02:49:10.974Z,89.50
2019-05-11T02:51:40.161Z,90.10
2019-05-11T02:54:09.456Z,90.10
2019-05-11T02:56:38.595Z,90.40
2019-05-11T02:59:07.933Z,90.50
2019-05-11T03:01:37.063Z,90.80
2019-05-11T03:04:06.312Z,90.80
2019-05-11T03:06:35.545Z,90.70
2019-05-11T03:09:06.131Z,90.70
2019-05-11T03:11:52.838Z,90.80
2019-05-11T03:14:06.315Z,90.90
2019-05-11T03:16:35.523Z,90.60
2019-05-11T03:19:04.680Z,90.70
2019-05-11T03:21:33.900Z,90.10
2019-05-11T03:24:03.225Z,90.10
2019-05-11T03:26:32.535Z,90.70
2019-05-11T03:29:01.772Z,90.40
2019-05-11T03:31:30.918Z,90.80
2019-05-11T03:34:00.068Z,90.80
2019-05-11T03:36:29.252Z,91.00
2019-05-11T03:38:58.470Z,90.90
2019-05-11T03:41:27.640Z,91.00
2019-05-11T03:43:56.820Z,90.20
2019-05-11T03:46:25.955Z,90.70
2019-05-11T03:48:55.123Z,90.50
2019-05-11T03:51:24.271Z,90.20
2019-05-11T03:53:53.446Z,90.20
2019-05-11T03:56:22.613Z,89.70
2019-05-11T03:58:51.785Z,89.20
2019-05-11T04:01:20.998Z,89.20
2019-05-11T04:03:50.241Z,88.70
2019-05-11T04:06:20.974Z,88.90
2019-05-11T04:08:50.197Z,88.70
2019-05-11T04:11:19.425Z,88.00
2019-05-11T04:13:48.801Z,87.70
2019-05-11T04:16:18.000Z,87.90
2019-05-11T04:18:47.380Z,88.70
2019-05-11T04:21:16.537Z,88.30
2019-05-11T04:23:46.219Z,88.20
2019-05-11T04:26:15.428Z,88.20
2019-05-11T04:28:44.665Z,88.00
2019-05-11T04:31:13.843Z,87.20
2019-05-11T04:33:43.096Z,88.00
2019-05-11T04:36:12.265Z,87.60
2019-05-11T04:38:41.429Z,88.60
2019-05-11T04:41:10.600Z,88.30
2019-05-11T04:43:40.226Z,88.20
2019-05-11T04:46:09.485Z,88.90
2019-05-11T04:48:38.659Z,90.70
2019-05-11T04:51:07.829Z,90.70
2019-05-11T04:53:38.147Z,91.10
2019-05-11T04:56:07.370Z,91.60
2019-05-11T04:58:36.590Z,91.70
2019-05-11T05:01:05.833Z,91.50
2019-05-11T05:03:40.660Z,91.70
2019-05-11T05:06:22.210Z,91.10
2019-05-11T05:08:36.817Z,90.90
2019-05-11T05:11:06.057Z,91.10
2019-05-11T05:13:36.847Z,91.90
2019-05-11T05:16:06.050Z,92.10
2019-05-11T05:18:35.279Z,92.00
2019-05-11T05:21:04.553Z,92.00
2019-05-11T05:23:33.699Z,92.10
2019-05-11T05:26:02.876Z,92.10
2019-05-11T05:28:32.047Z,92.10
2019-05-11T05:31:01.263Z,92.20
2019-05-11T05:33:30.413Z,92.30
2019-05-11T05:35:59.576Z,91.10
2019-05-11T05:38:28.707Z,91.00
2019-05-11T05:40:57.888Z,90.90
2019-05-11T05:43:28.566Z,91.30
2019-05-11T05:45:59.072Z,90.80
2019-05-11T05:48:28.217Z,90.70
2019-05-11T05:50:57.381Z,91.10
2019-05-11T05:53:26.531Z,90.80
2019-05-11T05:55:55.711Z,90.80
2019-05-11T05:58:24.928Z,91.30
2019-05-11T06:00:54.156Z,90.90
2019-05-11T06:03:23.345Z,91.40
2019-05-11T06:05:52.563Z,91.30
2019-05-11T06:08:21.730Z,91.60
2019-05-11T06:10:50.871Z,92.30
2019-05-11T06:13:20.072Z,92.60
2019-05-11T06:15:49.262Z,92.80
2019-05-11T06:18:18.428Z,92.70
2019-05-11T06:20:47.581Z,92.20
2019-05-11T06:23:16.741Z,92.00
2019-05-11T06:25:45.870Z,91.60
2019-05-11T06:28:15.132Z,91.10
2019-05-11T06:30:44.368Z,91.20
2019-05-11T06:33:13.566Z,91.30
2019-05-11T06:35:43.808Z,91.30
2019-05-11T06:38:12.975Z,91.40
2019-05-11T06:40:42.141Z,91.60
2019-05-11T06:43:11.315Z,91.70
2019-05-11T06:45:40.455Z,91.50
2019-05-11T06:48:09.633Z,91.60
2019-05-11T06:50:38.876Z,91.70
2019-05-11T06:53:08.135Z,90.80
2019-05-11T06:55:37.313Z,91.80
2019-05-11T06:58:07.538Z,92.10
2019-05-11T07:00:36.708Z,92.10
2019-05-11T07:03:05.892Z,92.30
2019-05-11T07:05:35.106Z,92.80
2019-05-11T07:08:04.288Z,93.00
2019-05-11T07:10:33.510Z,92.90
2019-05-11T07:13:02.671Z,92.90
2019-05-11T07:15:31.989Z,92.80
2019-05-11T07:18:01.219Z,92.70
2019-05-11T07:20:30.362Z,92.70
2019-05-11T07:22:59.540Z,92.60
2019-05-11T07:25:28.673Z,91.60
2019-05-11T07:27:57.912Z,91.40
2019-05-11T07:30:27.055Z,90.50
2019-05-11T07:32:58.126Z,91.00
2019-05-11T07:35:27.928Z,90.90
2019-05-11T07:37:58.186Z,90.40
2019-05-11T07:40:27.996Z,88.70
2019-05-11T07:42:59.051Z,87.60
2019-05-11T07:45:28.506Z,85.30
2019-05-11T07:47:59.040Z,85.10
2019-05-11T07:50:29.299Z,83.70
2019-05-11T07:52:59.007Z,83.10
2019-05-11T07:55:28.413Z,83.00
2019-05-11T07:57:58.589Z,85.20
2019-05-11T08:00:28.288Z,84.70
2019-05-11T08:02:58.455Z,84.50
2019-05-11T08:05:28.490Z,83.00
2019-05-11T08:07:59.520Z,83.00
2019-05-11T08:10:28.620Z,82.80
2019-05-11T08:12:58.743Z,81.10
2019-05-11T08:15:29.443Z,83.80
2019-05-11T08:17:58.750Z,83.10
2019-05-11T08:20:28.212Z,84.30
2019-05-11T08:22:58.722Z,83.80
2019-05-11T08:25:28.753Z,84.60
2019-05-11T08:27:58.868Z,84.00
2019-05-11T08:30:28.222Z,84.80
2019-05-11T08:32:58.235Z,83.10
2019-05-11T08:35:31.214Z,83.10
2019-05-11T08:37:58.583Z,83.10
2019-05-11T08:40:30.467Z,82.50
2019-05-11T08:42:59.651Z,82.40
2019-05-11T08:45:28.900Z,82.40
2019-05-11T08:47:58.187Z,82.40
2019-05-11T08:50:28.065Z,83.50
2019-05-11T08:52:58.206Z,83.20
2019-05-11T08:55:28.953Z,83.30
2019-05-11T08:57:58.682Z,81.70
2019-05-11T09:00:28.511Z,78.70
2019-05-11T09:02:58.362Z,78.30
2019-05-11T09:05:28.171Z,76.80
2019-05-11T09:07:57.893Z,74.20
2019-05-11T09:10:28.069Z,71.40
2019-05-11T09:12:59.099Z,69.50
2019-05-11T09:15:36.238Z,67.50
2019-05-11T09:17:59.484Z,67.70
2019-05-11T09:20:28.746Z,62.60
2019-05-11T09:22:58.979Z,59.50
2019-05-11T09:25:28.465Z,57.80
2019-05-11T09:27:58.697Z,58.00
2019-05-11T09:30:28.875Z,56.60
2019-05-11T09:32:59.268Z,52.40
2019-05-11T09:35:29.208Z,51.90
2019-05-11T09:37:58.917Z,52.00
2019-05-11T09:40:29.259Z,52.50
2019-05-11T09:42:58.691Z,56.30
2019-05-11T09:45:27.985Z,55.00
2019-05-11T09:47:58.181Z,55.50
2019-05-11T09:50:28.330Z,55.50
2019-05-11T09:52:59.303Z,57.50
2019-05-11T09:55:28.508Z,58.60
2019-05-11T09:57:58.090Z,57.30
2019-05-11T10:00:28.277Z,55.80
2019-05-11T10:03:00.505Z,58.40
2019-05-11T10:05:29.672Z,58.00
2019-05-11T10:07:59.107Z,57.00
2019-05-11T10:10:28.950Z,56.00
2019-05-11T10:12:59.054Z,57.30
2019-05-11T10:15:28.431Z,57.50
2019-05-11T10:17:58.890Z,56.50
2019-05-11T10:20:28.791Z,56.30
2019-05-11T10:22:58.238Z,53.60
2019-05-11T10:25:28.667Z,49.10
2019-05-11T10:27:58.195Z,48.10
2019-05-11T10:30:28.093Z,51.10
2019-05-11T10:32:58.615Z,53.10
2019-05-11T10:35:28.845Z,55.70
2019-05-11T10:37:58.433Z,57.90
2019-05-11T10:40:28.303Z,58.70
2019-05-11T10:42:58.972Z,59.20
2019-05-11T10:45:29.505Z,58.60
2019-05-11T10:48:01.110Z,59.30
2019-05-11T10:50:29.548Z,58.70
2019-05-11T10:52:59.149Z,58.00
2019-05-11T10:55:29.572Z,59.30
2019-05-11T10:57:58.725Z,59.40
2019-05-11T11:00:28.395Z,59.50
2019-05-11T11:02:58.397Z,59.00
2019-05-11T11:05:28.720Z,59.80
2019-05-11T11:07:58.840Z,59.60
2019-05-11T11:10:28.770Z,60.50
2019-05-11T11:12:58.221Z,61.20
2019-05-11T11:15:28.866Z,61.60
2019-05-11T11:17:58.179Z,61.00
2019-05-11T11:20:28.008Z,61.30
2019-05-11T11:22:58.380Z,61.90
2019-05-11T11:25:28.440Z,61.80
2019-05-11T11:27:59.292Z,62.10
2019-05-11T11:30:31.223Z,62.70
2019-05-11T11:33:00.410Z,62.70
2019-05-11T11:35:29.573Z,62.40
2019-05-11T11:37:59.105Z,63.20
2019-05-11T11:40:28.381Z,64.80
2019-05-11T11:42:58.125Z,64.50
2019-05-11T11:45:28.785Z,65.30
2019-05-11T11:47:58.335Z,64.50
2019-05-11T11:50:28.350Z,62.90
2019-05-11T11:52:57.909Z,62.60
2019-05-11T11:55:28.958Z,60.70
2019-05-11T11:57:58.870Z,61.10
2019-05-11T12:00:28.992Z,61.00
2019-05-11T12:02:58.424Z,62.70
2019-05-11T12:05:28.283Z,65.40
2019-05-11T12:07:58.091Z,66.50
2019-05-11T12:10:28.687Z,68.20
2019-05-11T12:12:58.281Z,69.20
2019-05-11T12:15:28.220Z,71.00
2019-05-11T12:17:58.849Z,70.20
2019-05-11T12:20:28.783Z,70.20
2019-05-11T12:22:58.229Z,69.50
2019-05-11T12:25:27.935Z,69.70
2019-05-11T12:27:57.850Z,69.80
2019-05-11T12:30:28.498Z,70.50
2019-05-11T12:32:58.904Z,71.90
2019-05-11T12:35:28.565Z,71.70
2019-05-11T12:37:59.074Z,74.00
2019-05-11T12:40:28.462Z,74.10
2019-05-11T12:42:59.030Z,74.50
2019-05-11T12:45:29.642Z,74.40
2019-05-11T12:48:00.214Z,75.90
2019-05-11T12:50:29.550Z,76.70
2019-05-11T12:53:09.126Z,75.90
2019-05-11T12:55:38.317Z,76.60
2019-05-11T12:58:08.653Z,76.70
2019-05-11T13:00:39.102Z,76.70
2019-05-11T13:03:08.758Z,76.20
2019-05-11T13:05:38.060Z,74.80
2019-05-11T13:08:07.974Z,73.90
2019-05-11T13:10:37.708Z,74.30
2019-05-11T13:13:08.952Z,72.90
2019-05-11T13:15:38.840Z,72.60
2019-05-11T13:18:08.508Z,70.70
2019-05-11T13:20:38.950Z,70.00
2019-05-11T13:23:08.214Z,68.90
2019-05-11T13:25:38.819Z,69.10
2019-05-11T13:28:08.674Z,69.40
2019-05-11T13:30:39.075Z,69.40
2019-05-11T13:33:08.704Z,68.70
2019-05-11T13:35:37.937Z,69.40
2019-05-11T13:38:08.757Z,68.30
2019-05-11T13:40:39.262Z,67.80
2019-05-11T13:43:08.684Z,68.00
2019-05-11T13:45:38.763Z,67.90
2019-05-11T13:48:08.589Z,67.60
2019-05-11T13:50:38.660Z,67.30
2019-05-11T13:53:08.213Z,68.50
2019-05-11T13:55:38.845Z,67.20
2019-05-11T13:58:09.385Z,69.00
2019-05-11T14:00:38.592Z,70.60
2019-05-11T14:03:08.937Z,69.30
2019-05-11T14:05:38.137Z,69.00
2019-05-11T14:08:08.105Z,68.20
2019-05-11T14:10:38.406Z,67.80
2019-05-11T14:13:08.780Z,67.20
2019-05-11T14:15:38.166Z,67.90
2019-05-11T14:18:09.450Z,67.80
2019-05-11T14:20:38.393Z,68.10
2019-05-11T14:23:07.872Z,68.70
2019-05-11T14:25:38.140Z,68.70
2019-05-11T14:28:08.844Z,68.20
2019-05-11T14:30:38.801Z,64.20
2019-05-11T14:33:08.867Z,55.30
2019-05-11T14:35:38.582Z,51.70
2019-05-11T14:38:08.158Z,52.60
2019-05-11T14:40:38.747Z,52.30
2019-05-11T14:43:08.486Z,52.90
2019-05-11T14:45:38.237Z,54.10
2019-05-11T14:48:22.229Z,55.20
2019-05-11T14:50:39.503Z,55.90
2019-05-11T14:53:08.812Z,57.80
2019-05-11T14:55:38.220Z,58.30
2019-05-11T14:58:08.341Z,59.30
2019-05-11T15:00:39.186Z,60.60
2019-05-11T15:03:08.707Z,61.40
2019-05-11T15:05:40.937Z,61.90
2019-05-11T15:08:08.819Z,62.80
2019-05-11T15:10:38.418Z,62.50
2019-05-11T15:13:08.791Z,63.30
2019-05-11T15:15:39.485Z,63.80
2019-05-11T15:18:08.953Z,64.10
2019-05-11T15:20:38.721Z,65.30
2019-05-11T15:23:08.900Z,65.00
2019-05-11T15:25:38.516Z,64.90
2019-05-11T15:28:08.930Z,64.40
2019-05-11T15:30:38.334Z,65.20
2019-05-11T15:33:07.861Z,66.60
2019-05-11T15:35:37.877Z,65.60
2019-05-11T15:38:08.867Z,66.40
2019-05-11T15:40:38.440Z,67.00
2019-05-11T15:43:08.828Z,66.90
2019-05-11T15:45:38.294Z,67.40
2019-05-11T15:48:08.472Z,67.40
2019-05-11T15:50:40.066Z,66.40
2019-05-11T15:53:08.901Z,66.80
2019-05-11T15:55:41.805Z,67.30
2019-05-11T15:58:09.113Z,67.30
2019-05-11T16:00:40.062Z,67.60
2019-05-11T16:03:09.536Z,66.90
2019-05-11T16:05:38.788Z,66.40
2019-05-11T16:08:08.701Z,66.50
2019-05-11T16:10:38.554Z,67.30
2019-05-11T16:13:09.568Z,66.20
2019-05-11T16:15:38.792Z,66.60
2019-05-11T16:18:08.463Z,66.20
2019-05-11T16:20:39.054Z,65.40
2019-05-11T16:23:08.282Z,65.40
2019-05-11T16:25:38.237Z,64.60
2019-05-11T16:28:10.364Z,64.60
2019-05-11T16:30:39.267Z,64.80
2019-05-11T16:33:08.831Z,65.40
2019-05-11T16:35:38.383Z,65.80
2019-05-11T16:38:10.711Z,65.80
2019-05-11T16:40:39.800Z,66.40
2019-05-11T16:43:09.054Z,65.80
2019-05-11T16:45:38.229Z,65.70
2019-05-11T16:48:08.129Z,65.70
2019-05-11T16:50:38.392Z,65.50
2019-05-11T16:53:07.792Z,65.00
2019-05-11T16:55:37.733Z,65.00
2019-05-11T16:58:08.362Z,65.00
2019-05-11T17:00:39.234Z,64.40
2019-05-11T17:03:08.580Z,64.70
2019-05-11T17:05:38.277Z,65.10
2019-05-11T17:08:08.116Z,62.90
2019-05-11T17:10:37.624Z,62.20
2019-05-11T17:13:08.705Z,61.30
2019-05-11T17:15:39.074Z,61.40
2019-05-11T17:18:08.250Z,60.10
2019-05-11T17:20:37.486Z,59.40
2019-05-11T17:23:06.838Z,58.70
2019-05-11T17:25:37.919Z,57.60
2019-05-11T17:28:09.769Z,58.30
2019-05-11T17:30:38.645Z,58.30
2019-05-11T17:33:08.682Z,58.70
2019-05-11T17:35:38.241Z,58.80
2019-05-11T17:38:07.984Z,59.10
2019-05-11T17:40:37.836Z,59.70
2019-05-11T17:43:09.034Z,60.30
2019-05-11T17:45:38.386Z,61.10
2019-05-11T17:48:08.446Z,61.60
2019-05-11T17:50:38.438Z,61.70
2019-05-11T17:53:07.809Z,62.20
2019-05-11T17:55:38.395Z,62.30
2019-05-11T17:58:08.704Z,62.40
2019-05-11T18:00:39.211Z,62.60
2019-05-11T18:03:11.308Z,62.70
2019-05-11T18:05:39.513Z,62.80
2019-05-11T18:08:08.845Z,62.90
2019-05-11T18:10:38.569Z,63.20
2019-05-11T18:13:07.914Z,63.50
2019-05-11T18:15:38.093Z,63.80
2019-05-11T18:18:09.391Z,63.90
2019-05-11T18:20:38.483Z,64.30
2019-05-11T18:23:08.231Z,64.60
2019-05-11T18:25:39.001Z,64.90
2019-05-11T18:28:08.496Z,64.90
2019-05-11T18:30:38.787Z,65.00
2019-05-11T18:33:08.561Z,65.10
2019-05-11T18:35:38.024Z,65.30
2019-05-11T18:38:08.535Z,65.20
2019-05-11T18:40:38.347Z,65.20
2019-05-11T18:43:08.549Z,65.60
2019-05-11T18:45:38.412Z,65.70
2019-05-11T18:48:11.326Z,66.00
2019-05-11T18:50:40.871Z,66.40
2019-05-11T18:53:22.031Z,67.20
2019-05-11T18:55:51.197Z,68.20
2019-05-11T18:58:20.385Z,69.10
2019-05-11T19:00:49.563Z,69.60
2019-05-11T19:03:19.236Z,69.30
2019-05-11T19:05:48.677Z,68.50
2019-05-11T19:08:19.001Z,68.60
2019-05-11T19:10:48.723Z,68.60
2019-05-11T19:13:19.322Z,68.90
2019-05-11T19:15:48.842Z,69.10
2019-05-11T19:18:18.113Z,68.80
2019-05-11T19:20:49.433Z,68.60
2019-05-11T19:23:19.872Z,69.30
2019-05-11T19:25:49.041Z,69.60
2019-05-11T19:28:18.710Z,69.60
2019-05-11T19:30:48.842Z,70.10
2019-05-11T19:33:18.963Z,70.30
2019-05-11T19:35:48.442Z,70.00
2019-05-11T19:38:18.885Z,70.50
2019-05-11T19:40:48.590Z,70.60
2019-05-11T19:43:18.508Z,70.60
2019-05-11T19:45:48.637Z,70.70
2019-05-11T19:48:18.258Z,71.20
2019-05-11T19:51:01.871Z,71.40
2019-05-11T19:53:19.506Z,71.60
2019-05-11T19:55:48.699Z,71.70
2019-05-11T19:58:19.227Z,71.70
2019-05-11T20:00:48.939Z,71.70
2019-05-11T20:03:19.054Z,71.90
2019-05-11T20:05:48.643Z,72.10
2019-05-11T20:08:18.557Z,72.00
2019-05-11T20:10:48.697Z,71.90
2019-05-11T20:13:18.549Z,72.20
2019-05-11T20:15:48.492Z,72.20
2019-05-11T20:18:18.497Z,72.60
2019-05-11T20:20:48.152Z,72.50
2019-05-11T20:23:17.556Z,72.20
2019-05-11T20:25:47.796Z,72.70
2019-05-11T20:28:18.272Z,73.30
2019-05-11T20:30:48.651Z,73.00
2019-05-11T20:33:18.980Z,73.10
2019-05-11T20:35:48.783Z,73.50
2019-05-11T20:38:18.790Z,73.60
2019-05-11T20:40:48.555Z,74.00
2019-05-11T20:43:18.576Z,74.30
2019-05-11T20:45:48.742Z,74.40
2019-05-11T20:48:18.543Z,74.60
2019-05-11T20:50:48.474Z,74.40
2019-05-11T20:53:18.218Z,74.70
2019-05-11T20:55:47.879Z,75.00
2019-05-11T20:58:19.040Z,75.30
2019-05-11T21:00:49.178Z,75.10
2019-05-11T21:03:18.568Z,75.00
2019-05-11T21:05:48.277Z,75.50
2019-05-11T21:08:17.847Z,75.80
2019-05-11T21:10:49.034Z,76.60
2019-05-11T21:13:18.407Z,75.50
2019-05-11T21:15:47.982Z,75.50
2019-05-11T21:18:18.475Z,75.60
2019-05-11T21:20:48.339Z,76.40
2019-05-11T21:23:18.636Z,77.20
2019-05-11T21:25:48.047Z,77.70
2019-05-11T21:28:17.212Z,77.90
2019-05-11T21:30:48.125Z,78.10
2019-05-11T21:33:17.995Z,78.40
2019-05-11T21:35:48.864Z,78.70
2019-05-11T21:38:18.645Z,78.80
2019-05-11T21:40:48.506Z,78.90
2019-05-11T21:43:17.934Z,79.00
2019-05-11T21:45:47.075Z,79.80
2019-05-11T21:48:16.554Z,78.90
2019-05-11T21:50:45.795Z,79.00
2019-05-11T21:53:14.958Z,79.60
2019-05-11T21:55:44.121Z,79.70
2019-05-11T21:58:13.271Z,80.00
2019-05-11T22:00:42.474Z,80.60
2019-05-11T22:03:11.688Z,81.00
2019-05-11T22:05:40.847Z,82.40
2019-05-11T22:08:09.990Z,82.20
2019-05-11T22:10:39.219Z,82.40
2019-05-11T22:13:08.370Z,82.70
2019-05-11T22:15:38.576Z,83.10
2019-05-11T22:18:08.230Z,83.10
2019-05-11T22:20:40.510Z,82.90
2019-05-11T22:23:08.622Z,83.20
2019-05-11T22:25:38.304Z,83.30
2019-05-11T22:28:08.442Z,83.70
2019-05-11T22:30:39.327Z,84.80
2019-05-11T22:33:08.940Z,85.70
2019-05-11T22:35:38.783Z,85.90
2019-05-11T22:38:08.637Z,87.10
2019-05-11T22:40:38.410Z,88.00
2019-05-11T22:43:09.466Z,88.70
2019-05-11T22:45:39.903Z,90.10
2019-05-11T22:48:09.133Z,90.30
2019-05-11T22:50:38.469Z,90.50
2019-05-11T22:53:08.639Z,90.90
2019-05-11T22:55:38.522Z,90.90
2019-05-11T22:58:08.470Z,91.30
2019-05-11T23:00:42.979Z,91.10
2019-05-11T23:03:12.371Z,91.20
2019-05-11T23:05:42.006Z,91.50
2019-05-11T23:08:11.156Z,92.10
2019-05-11T23:10:40.415Z,91.80
2019-05-11T23:13:11.427Z,91.80
2019-05-11T23:15:40.704Z,92.40
2019-05-11T23:18:09.916Z,92.10
2019-05-11T23:20:39.063Z,92.10
2019-05-11T23:23:08.987Z,92.40
2019-05-11T23:25:38.269Z,92.10
2019-05-11T23:28:07.517Z,92.40
2019-05-11T23:30:38.907Z,92.30
2019-05-11T23:33:07.948Z,93.00
2019-05-11T23:35:38.233Z,92.90
2019-05-11T23:38:07.919Z,93.10
2019-05-11T23:40:37.854Z,93.20
2019-05-11T23:43:08.735Z,93.40
2019-05-11T23:45:38.461Z,93.60
2019-05-11T23:48:07.778Z,93.60
2019-05-11T23:50:38.571Z,93.90
2019-05-11T23:53:10.334Z,94.10
2019-05-11T23:55:38.602Z,94.30
2019-05-11T23:58:08.167Z,94.20
